Terminal Aerodrome Forecast
Issued by NWS

Home | Current Version | Previous Version | Text Only | Print | Product List | Glossary On
Versions: 1 2 3 4 5 6 7 8 9 10 11 12 13 14 15 16 17 18 19 20 21 22 23 24 25 26 27 28 29 30 31 32 33 34 35 36
128
FTUS45 KREV 161433 AAA
TAFTVL
TAF AMD
KTVL 161433Z 1615/1712 VRB03KT P6SM VCFG SKC
     FM161700 19006KT P6SM FEW010
     FM170300 VRB03KT P6SM FEW006
     FM171000 00000KT P6SM VCFG FEW005=

USA.gov is the U.S. government's official web portal to all federal, state and local government web resources and services.